sensor_id;sensor_type;location;lat;lon;timestamp;P1;durP1;ratioP1;P2;durP2;ratioP2
14605;SDS011;7389;53.692;-1.020;2023-03-12T00:01:31;4.20;;;3.20;;
14605;SDS011;7389;53.692;-1.020;2023-03-12T00:04:00;5.53;;;3.87;;
14605;SDS011;7389;53.692;-1.020;2023-03-12T00:06:28;15.33;;;3.50;;
14605;SDS011;7389;53.692;-1.020;2023-03-12T00:08:55;5.90;;;3.20;;
14605;SDS011;7389;53.692;-1.020;2023-03-12T00:11:26;12.17;;;3.83;;
14605;SDS011;7389;53.692;-1.020;2023-03-12T00:13:56;4.87;;;3.17;;
14605;SDS011;7389;53.692;-1.020;2023-03-12T00:16:25;7.27;;;3.33;;
14605;SDS011;7389;53.692;-1.020;2023-03-12T00:18:53;4.73;;;2.70;;
14605;SDS011;7389;53.692;-1.020;2023-03-12T00:21:21;6.03;;;3.47;;
14605;SDS011;7389;53.692;-1.020;2023-03-12T00:23:49;4.60;;;2.60;;
14605;SDS011;7389;53.692;-1.020;2023-03-12T00:26:15;3.17;;;2.83;;
14605;SDS011;7389;53.692;-1.020;2023-03-12T00:28:42;6.40;;;4.13;;
14605;SDS011;7389;53.692;-1.020;2023-03-12T00:31:13;10.20;;;3.80;;
14605;SDS011;7389;53.692;-1.020;2023-03-12T00:33:39;4.67;;;3.67;;
14605;SDS011;7389;53.692;-1.020;2023-03-12T00:36:06;4.07;;;3.33;;
14605;SDS011;7389;53.692;-1.020;2023-03-12T00:38:33;4.60;;;4.20;;
14605;SDS011;7389;53.692;-1.020;2023-03-12T00:40:59;7.10;;;4.23;;
14605;SDS011;7389;53.692;-1.020;2023-03-12T00:43:26;10.03;;;4.23;;
14605;SDS011;7389;53.692;-1.020;2023-03-12T00:45:53;6.43;;;4.27;;
14605;SDS011;7389;53.692;-1.020;2023-03-12T00:48:19;6.00;;;4.73;;
14605;SDS011;7389;53.692;-1.020;2023-03-12T00:50:46;8.33;;;4.13;;
14605;SDS011;7389;53.692;-1.020;2023-03-12T00:53:13;7.83;;;4.00;;
14605;SDS011;7389;53.692;-1.020;2023-03-12T00:55:39;6.00;;;5.20;;
14605;SDS011;7389;53.692;-1.020;2023-03-12T00:58:06;9.53;;;5.40;;
14605;SDS011;7389;53.692;-1.020;2023-03-12T01:00:32;6.53;;;5.17;;
14605;SDS011;7389;53.692;-1.020;2023-03-12T01:02:59;6.57;;;4.50;;
14605;SDS011;7389;53.692;-1.020;2023-03-12T01:05:25;6.57;;;5.00;;
14605;SDS011;7389;53.692;-1.020;2023-03-12T01:07:51;13.97;;;5.20;;
14605;SDS011;7389;53.692;-1.020;2023-03-12T01:10:18;6.40;;;5.00;;
14605;SDS011;7389;53.692;-1.020;2023-03-12T01:12:46;5.43;;;4.90;;
14605;SDS011;7389;53.692;-1.020;2023-03-12T01:15:14;4.93;;;4.47;;
14605;SDS011;7389;53.692;-1.020;2023-03-12T01:17:40;5.57;;;4.70;;
14605;SDS011;7389;53.692;-1.020;2023-03-12T01:20:07;8.13;;;5.00;;
14605;SDS011;7389;53.692;-1.020;2023-03-12T01:22:34;5.33;;;4.43;;
14605;SDS011;7389;53.692;-1.020;2023-03-12T01:25:01;4.70;;;4.30;;
14605;SDS011;7389;53.692;-1.020;2023-03-12T01:27:27;4.80;;;4.40;;
14605;SDS011;7389;53.692;-1.020;2023-03-12T01:29:53;5.60;;;4.23;;
14605;SDS011;7389;53.692;-1.020;2023-03-12T01:32:20;11.80;;;4.90;;
14605;SDS011;7389;53.692;-1.020;2023-03-12T01:34:46;8.40;;;5.10;;
14605;SDS011;7389;53.692;-1.020;2023-03-12T01:37:12;4.47;;;4.27;;
14605;SDS011;7389;53.692;-1.020;2023-03-12T01:39:39;7.03;;;5.27;;
14605;SDS011;7389;53.692;-1.020;2023-03-12T01:42:05;8.80;;;5.73;;
14605;SDS011;7389;53.692;-1.020;2023-03-12T01:44:48;5.20;;;4.80;;
14605;SDS011;7389;53.692;-1.020;2023-03-12T01:47:14;4.87;;;4.50;;
14605;SDS011;7389;53.692;-1.020;2023-03-12T01:49:41;11.43;;;5.00;;
14605;SDS011;7389;53.692;-1.020;2023-03-12T01:52:08;11.73;;;5.10;;
14605;SDS011;7389;53.692;-1.020;2023-03-12T01:54:38;14.23;;;5.30;;
14605;SDS011;7389;53.692;-1.020;2023-03-12T01:57:07;8.90;;;5.63;;
14605;SDS011;7389;53.692;-1.020;2023-03-12T01:59:36;7.03;;;6.20;;
14605;SDS011;7389;53.692;-1.020;2023-03-12T02:02:03;8.70;;;6.60;;
14605;SDS011;7389;53.692;-1.020;2023-03-12T02:04:30;6.10;;;5.50;;
14605;SDS011;7389;53.692;-1.020;2023-03-12T02:07:01;6.67;;;5.53;;
14605;SDS011;7389;53.692;-1.020;2023-03-12T02:09:30;7.53;;;6.20;;
14605;SDS011;7389;53.692;-1.020;2023-03-12T02:11:57;5.63;;;5.13;;
14605;SDS011;7389;53.692;-1.020;2023-03-12T02:14:23;12.23;;;5.43;;
14605;SDS011;7389;53.692;-1.020;2023-03-12T02:16:50;7.13;;;6.53;;
14605;SDS011;7389;53.692;-1.020;2023-03-12T02:19:23;11.03;;;6.00;;
14605;SDS011;7389;53.692;-1.020;2023-03-12T02:21:52;6.30;;;5.70;;
14605;SDS011;7389;53.692;-1.020;2023-03-12T02:24:24;5.90;;;5.40;;
14605;SDS011;7389;53.692;-1.020;2023-03-12T02:26:53;7.37;;;6.57;;
14605;SDS011;7389;53.692;-1.020;2023-03-12T02:29:19;6.93;;;6.27;;
14605;SDS011;7389;53.692;-1.020;2023-03-12T02:31:47;6.60;;;6.00;;
14605;SDS011;7389;53.692;-1.020;2023-03-12T02:34:15;8.43;;;6.60;;
14605;SDS011;7389;53.692;-1.020;2023-03-12T02:36:41;6.93;;;6.27;;
14605;SDS011;7389;53.692;-1.020;2023-03-12T02:39:09;8.77;;;7.33;;
14605;SDS011;7389;53.692;-1.020;2023-03-12T02:41:37;8.20;;;7.40;;
14605;SDS011;7389;53.692;-1.020;2023-03-12T02:44:06;10.57;;;6.67;;
14605;SDS011;7389;53.692;-1.020;2023-03-12T02:46:37;9.90;;;7.67;;
14605;SDS011;7389;53.692;-1.020;2023-03-12T02:49:04;12.10;;;8.70;;
14605;SDS011;7389;53.692;-1.020;2023-03-12T02:51:30;8.67;;;7.67;;
14605;SDS011;7389;53.692;-1.020;2023-03-12T02:53:57;12.13;;;7.40;;
14605;SDS011;7389;53.692;-1.020;2023-03-12T02:56:24;9.67;;;8.00;;
14605;SDS011;7389;53.692;-1.020;2023-03-12T02:58:50;12.63;;;8.00;;
14605;SDS011;7389;53.692;-1.020;2023-03-12T03:01:17;9.33;;;8.40;;
14605;SDS011;7389;53.692;-1.020;2023-03-12T03:03:44;10.20;;;8.17;;
14605;SDS011;7389;53.692;-1.020;2023-03-12T03:06:11;11.87;;;8.00;;
14605;SDS011;7389;53.692;-1.020;2023-03-12T03:08:38;10.10;;;8.60;;
14605;SDS011;7389;53.692;-1.020;2023-03-12T03:11:04;12.57;;;8.77;;
14605;SDS011;7389;53.692;-1.020;2023-03-12T03:13:31;11.60;;;8.40;;
14605;SDS011;7389;53.692;-1.020;2023-03-12T03:15:58;12.07;;;9.00;;
14605;SDS011;7389;53.692;-1.020;2023-03-12T03:18:26;9.60;;;8.20;;
14605;SDS011;7389;53.692;-1.020;2023-03-12T03:20:54;14.10;;;9.10;;
14605;SDS011;7389;53.692;-1.020;2023-03-12T03:23:20;10.73;;;9.27;;
14605;SDS011;7389;53.692;-1.020;2023-03-12T03:25:47;9.57;;;7.87;;
14605;SDS011;7389;53.692;-1.020;2023-03-12T03:28:13;13.37;;;8.90;;
14605;SDS011;7389;53.692;-1.020;2023-03-12T03:30:39;11.07;;;9.53;;
14605;SDS011;7389;53.692;-1.020;2023-03-12T03:33:05;19.63;;;9.83;;
14605;SDS011;7389;53.692;-1.020;2023-03-12T03:35:32;12.70;;;8.67;;
14605;SDS011;7389;53.692;-1.020;2023-03-12T03:37:59;16.47;;;9.67;;
14605;SDS011;7389;53.692;-1.020;2023-03-12T03:40:25;12.57;;;8.93;;
14605;SDS011;7389;53.692;-1.020;2023-03-12T03:42:51;13.03;;;8.70;;
14605;SDS011;7389;53.692;-1.020;2023-03-12T03:45:18;12.13;;;8.47;;
14605;SDS011;7389;53.692;-1.020;2023-03-12T03:47:44;10.30;;;8.60;;
14605;SDS011;7389;53.692;-1.020;2023-03-12T03:50:10;11.33;;;9.13;;
14605;SDS011;7389;53.692;-1.020;2023-03-12T03:52:37;9.20;;;7.60;;
14605;SDS011;7389;53.692;-1.020;2023-03-12T03:55:03;14.13;;;8.70;;
14605;SDS011;7389;53.692;-1.020;2023-03-12T03:57:29;9.60;;;7.27;;
14605;SDS011;7389;53.692;-1.020;2023-03-12T03:59:56;11.07;;;7.40;;
14605;SDS011;7389;53.692;-1.020;2023-03-12T04:02:24;12.20;;;7.20;;
14605;SDS011;7389;53.692;-1.020;2023-03-12T04:04:51;12.07;;;7.53;;
14605;SDS011;7389;53.692;-1.020;2023-03-12T04:07:17;8.23;;;6.50;;
14605;SDS011;7389;53.692;-1.020;2023-03-12T04:09:45;11.10;;;7.00;;
14605;SDS011;7389;53.692;-1.020;2023-03-12T04:12:11;12.43;;;6.70;;
14605;SDS011;7389;53.692;-1.020;2023-03-12T04:14:38;9.43;;;7.03;;
14605;SDS011;7389;53.692;-1.020;2023-03-12T04:17:05;12.97;;;7.00;;
14605;SDS011;7389;53.692;-1.020;2023-03-12T04:19:31;10.00;;;6.43;;
14605;SDS011;7389;53.692;-1.020;2023-03-12T04:21:57;8.73;;;6.17;;
14605;SDS011;7389;53.692;-1.020;2023-03-12T04:24:23;9.93;;;6.87;;
14605;SDS011;7389;53.692;-1.020;2023-03-12T04:26:50;10.17;;;6.10;;
14605;SDS011;7389;53.692;-1.020;2023-03-12T04:29:16;11.53;;;5.87;;
14605;SDS011;7389;53.692;-1.020;2023-03-12T04:31:43;8.37;;;5.70;;
14605;SDS011;7389;53.692;-1.020;2023-03-12T04:34:09;8.87;;;5.30;;
14605;SDS011;7389;53.692;-1.020;2023-03-12T04:36:35;9.20;;;4.87;;
14605;SDS011;7389;53.692;-1.020;2023-03-12T04:39:02;9.30;;;6.73;;
14605;SDS011;7389;53.692;-1.020;2023-03-12T04:41:32;8.27;;;6.07;;
14605;SDS011;7389;53.692;-1.020;2023-03-12T04:43:58;9.30;;;5.10;;
14605;SDS011;7389;53.692;-1.020;2023-03-12T04:46:25;9.80;;;5.33;;
14605;SDS011;7389;53.692;-1.020;2023-03-12T04:48:51;6.83;;;5.77;;
14605;SDS011;7389;53.692;-1.020;2023-03-12T04:51:17;10.40;;;6.67;;
14605;SDS011;7389;53.692;-1.020;2023-03-12T04:53:43;8.30;;;6.77;;
14605;SDS011;7389;53.692;-1.020;2023-03-12T04:56:10;12.07;;;6.60;;
14605;SDS011;7389;53.692;-1.020;2023-03-12T04:58:36;9.57;;;6.40;;
14605;SDS011;7389;53.692;-1.020;2023-03-12T05:01:02;11.03;;;6.40;;
14605;SDS011;7389;53.692;-1.020;2023-03-12T05:03:30;10.80;;;7.27;;
14605;SDS011;7389;53.692;-1.020;2023-03-12T05:05:56;16.30;;;7.60;;
14605;SDS011;7389;53.692;-1.020;2023-03-12T05:08:22;8.63;;;6.73;;
14605;SDS011;7389;53.692;-1.020;2023-03-12T05:10:48;8.40;;;6.83;;
14605;SDS011;7389;53.692;-1.020;2023-03-12T05:13:15;11.20;;;7.00;;
14605;SDS011;7389;53.692;-1.020;2023-03-12T05:15:42;14.43;;;7.60;;
14605;SDS011;7389;53.692;-1.020;2023-03-12T05:18:08;22.90;;;7.03;;
14605;SDS011;7389;53.692;-1.020;2023-03-12T05:20:34;10.00;;;6.17;;
14605;SDS011;7389;53.692;-1.020;2023-03-12T05:23:01;11.07;;;6.87;;
14605;SDS011;7389;53.692;-1.020;2023-03-12T05:25:27;7.30;;;6.50;;
14605;SDS011;7389;53.692;-1.020;2023-03-12T05:27:53;15.10;;;7.00;;
14605;SDS011;7389;53.692;-1.020;2023-03-12T05:30:20;11.00;;;6.70;;
14605;SDS011;7389;53.692;-1.020;2023-03-12T05:32:46;10.77;;;7.00;;
14605;SDS011;7389;53.692;-1.020;2023-03-12T05:35:13;14.73;;;6.87;;
14605;SDS011;7389;53.692;-1.020;2023-03-12T05:37:39;17.50;;;6.30;;
14605;SDS011;7389;53.692;-1.020;2023-03-12T05:40:08;34.70;;;6.17;;
14605;SDS011;7389;53.692;-1.020;2023-03-12T05:42:35;10.50;;;4.80;;
14605;SDS011;7389;53.692;-1.020;2023-03-12T05:45:02;32.67;;;5.07;;
14605;SDS011;7389;53.692;-1.020;2023-03-12T05:47:29;34.87;;;5.40;;
14605;SDS011;7389;53.692;-1.020;2023-03-12T05:49:55;24.70;;;5.17;;
14605;SDS011;7389;53.692;-1.020;2023-03-12T05:52:21;16.50;;;5.17;;
14605;SDS011;7389;53.692;-1.020;2023-03-12T05:54:50;16.43;;;4.90;;
14605;SDS011;7389;53.692;-1.020;2023-03-12T05:57:16;17.10;;;4.13;;
14605;SDS011;7389;53.692;-1.020;2023-03-12T05:59:43;18.77;;;4.17;;
14605;SDS011;7389;53.692;-1.020;2023-03-12T06:02:09;20.90;;;5.10;;
14605;SDS011;7389;53.692;-1.020;2023-03-12T06:04:35;27.30;;;4.57;;
14605;SDS011;7389;53.692;-1.020;2023-03-12T06:07:02;19.90;;;4.30;;
14605;SDS011;7389;53.692;-1.020;2023-03-12T06:09:28;17.03;;;4.00;;
14605;SDS011;7389;53.692;-1.020;2023-03-12T06:11:54;16.00;;;3.50;;
14605;SDS011;7389;53.692;-1.020;2023-03-12T06:14:20;22.07;;;4.07;;
14605;SDS011;7389;53.692;-1.020;2023-03-12T06:16:47;18.83;;;3.77;;
14605;SDS011;7389;53.692;-1.020;2023-03-12T06:19:13;11.47;;;3.70;;
14605;SDS011;7389;53.692;-1.020;2023-03-12T06:21:41;10.90;;;3.40;;
14605;SDS011;7389;53.692;-1.020;2023-03-12T06:24:07;13.87;;;4.37;;
14605;SDS011;7389;53.692;-1.020;2023-03-12T06:26:33;10.60;;;2.80;;
14605;SDS011;7389;53.692;-1.020;2023-03-12T06:29:00;13.87;;;2.70;;
14605;SDS011;7389;53.692;-1.020;2023-03-12T06:31:26;36.80;;;4.80;;
14605;SDS011;7389;53.692;-1.020;2023-03-12T06:33:52;16.43;;;3.20;;
14605;SDS011;7389;53.692;-1.020;2023-03-12T06:36:19;14.03;;;2.93;;
14605;SDS011;7389;53.692;-1.020;2023-03-12T06:38:47;25.57;;;4.27;;
14605;SDS011;7389;53.692;-1.020;2023-03-12T06:41:14;25.90;;;3.90;;
14605;SDS011;7389;53.692;-1.020;2023-03-12T06:43:41;29.00;;;4.73;;
14605;SDS011;7389;53.692;-1.020;2023-03-12T06:46:09;18.33;;;3.43;;
14605;SDS011;7389;53.692;-1.020;2023-03-12T06:48:36;17.07;;;4.50;;
14605;SDS011;7389;53.692;-1.020;2023-03-12T06:51:07;15.90;;;3.10;;
14605;SDS011;7389;53.692;-1.020;2023-03-12T06:53:33;22.53;;;3.10;;
14605;SDS011;7389;53.692;-1.020;2023-03-12T06:56:00;24.27;;;3.83;;
14605;SDS011;7389;53.692;-1.020;2023-03-12T06:58:26;27.43;;;3.70;;
14605;SDS011;7389;53.692;-1.020;2023-03-12T07:00:53;26.33;;;3.93;;
14605;SDS011;7389;53.692;-1.020;2023-03-12T07:03:19;30.00;;;4.70;;
14605;SDS011;7389;53.692;-1.020;2023-03-12T07:05:46;22.50;;;4.00;;
14605;SDS011;7389;53.692;-1.020;2023-03-12T07:08:13;32.63;;;4.47;;
14605;SDS011;7389;53.692;-1.020;2023-03-12T07:10:40;22.57;;;4.00;;
14605;SDS011;7389;53.692;-1.020;2023-03-12T07:13:07;46.37;;;4.50;;
14605;SDS011;7389;53.692;-1.020;2023-03-12T07:15:33;36.17;;;4.17;;
14605;SDS011;7389;53.692;-1.020;2023-03-12T07:18:08;31.03;;;4.90;;
14605;SDS011;7389;53.692;-1.020;2023-03-12T07:20:35;47.70;;;6.23;;
14605;SDS011;7389;53.692;-1.020;2023-03-12T07:23:02;30.07;;;6.00;;
14605;SDS011;7389;53.692;-1.020;2023-03-12T07:25:28;39.27;;;5.53;;
14605;SDS011;7389;53.692;-1.020;2023-03-12T07:27:55;41.63;;;6.00;;
14605;SDS011;7389;53.692;-1.020;2023-03-12T07:30:21;46.60;;;6.90;;
14605;SDS011;7389;53.692;-1.020;2023-03-12T07:32:48;53.73;;;11.17;;
14605;SDS011;7389;53.692;-1.020;2023-03-12T07:35:14;31.80;;;5.80;;
14605;SDS011;7389;53.692;-1.020;2023-03-12T07:37:42;34.73;;;5.73;;
14605;SDS011;7389;53.692;-1.020;2023-03-12T07:40:09;44.90;;;5.33;;
14605;SDS011;7389;53.692;-1.020;2023-03-12T07:42:36;31.17;;;4.60;;
14605;SDS011;7389;53.692;-1.020;2023-03-12T07:45:03;23.63;;;4.30;;
14605;SDS011;7389;53.692;-1.020;2023-03-12T07:47:29;35.40;;;5.40;;
14605;SDS011;7389;53.692;-1.020;2023-03-12T07:49:56;35.80;;;5.40;;
14605;SDS011;7389;53.692;-1.020;2023-03-12T07:52:22;37.80;;;4.97;;
14605;SDS011;7389;53.692;-1.020;2023-03-12T07:54:49;51.17;;;6.53;;
14605;SDS011;7389;53.692;-1.020;2023-03-12T07:57:17;41.97;;;5.03;;
14605;SDS011;7389;53.692;-1.020;2023-03-12T07:59:47;49.20;;;10.30;;
14605;SDS011;7389;53.692;-1.020;2023-03-12T08:02:14;59.50;;;8.27;;
14605;SDS011;7389;53.692;-1.020;2023-03-12T08:04:42;42.33;;;6.40;;
14605;SDS011;7389;53.692;-1.020;2023-03-12T08:07:11;46.50;;;6.20;;
14605;SDS011;7389;53.692;-1.020;2023-03-12T08:09:38;56.53;;;5.90;;
14605;SDS011;7389;53.692;-1.020;2023-03-12T08:12:05;43.70;;;5.67;;
14605;SDS011;7389;53.692;-1.020;2023-03-12T08:14:33;49.80;;;7.20;;
14605;SDS011;7389;53.692;-1.020;2023-03-12T08:17:01;37.77;;;7.03;;
14605;SDS011;7389;53.692;-1.020;2023-03-12T08:19:28;23.80;;;4.90;;
14605;SDS011;7389;53.692;-1.020;2023-03-12T08:21:58;40.03;;;5.57;;
14605;SDS011;7389;53.692;-1.020;2023-03-12T08:24:25;36.10;;;5.20;;
14605;SDS011;7389;53.692;-1.020;2023-03-12T08:26:53;46.17;;;6.23;;
14605;SDS011;7389;53.692;-1.020;2023-03-12T08:29:21;47.80;;;7.90;;
14605;SDS011;7389;53.692;-1.020;2023-03-12T08:31:48;52.83;;;6.83;;
14605;SDS011;7389;53.692;-1.020;2023-03-12T08:34:15;34.90;;;5.20;;
14605;SDS011;7389;53.692;-1.020;2023-03-12T08:36:42;59.43;;;6.50;;
14605;SDS011;7389;53.692;-1.020;2023-03-12T08:39:10;38.60;;;6.50;;
14605;SDS011;7389;53.692;-1.020;2023-03-12T08:41:37;37.03;;;4.77;;
14605;SDS011;7389;53.692;-1.020;2023-03-12T08:44:07;47.60;;;6.57;;
14605;SDS011;7389;53.692;-1.020;2023-03-12T08:46:34;54.93;;;6.80;;
14605;SDS011;7389;53.692;-1.020;2023-03-12T08:49:02;42.23;;;5.57;;
14605;SDS011;7389;53.692;-1.020;2023-03-12T08:51:32;48.10;;;7.93;;
14605;SDS011;7389;53.692;-1.020;2023-03-12T08:53:59;31.07;;;5.97;;
14605;SDS011;7389;53.692;-1.020;2023-03-12T08:56:27;72.27;;;7.67;;
14605;SDS011;7389;53.692;-1.020;2023-03-12T08:58:56;38.93;;;6.30;;
14605;SDS011;7389;53.692;-1.020;2023-03-12T09:01:24;48.50;;;6.40;;
14605;SDS011;7389;53.692;-1.020;2023-03-12T09:03:52;49.27;;;7.00;;
14605;SDS011;7389;53.692;-1.020;2023-03-12T09:06:22;44.40;;;6.60;;
14605;SDS011;7389;53.692;-1.020;2023-03-12T09:08:49;66.50;;;7.37;;
14605;SDS011;7389;53.692;-1.020;2023-03-12T09:11:17;47.50;;;6.97;;
14605;SDS011;7389;53.692;-1.020;2023-03-12T09:13:48;58.40;;;7.77;;
14605;SDS011;7389;53.692;-1.020;2023-03-12T09:16:16;62.73;;;6.73;;
14605;SDS011;7389;53.692;-1.020;2023-03-12T09:18:44;39.27;;;5.83;;
14605;SDS011;7389;53.692;-1.020;2023-03-12T09:21:15;46.33;;;6.10;;
14605;SDS011;7389;53.692;-1.020;2023-03-12T09:23:43;38.83;;;5.40;;
14605;SDS011;7389;53.692;-1.020;2023-03-12T09:26:11;34.73;;;5.33;;
14605;SDS011;7389;53.692;-1.020;2023-03-12T09:28:42;58.33;;;7.13;;
14605;SDS011;7389;53.692;-1.020;2023-03-12T09:31:11;21.67;;;5.40;;
14605;SDS011;7389;53.692;-1.020;2023-03-12T09:33:46;46.20;;;4.93;;
14605;SDS011;7389;53.692;-1.020;2023-03-12T09:36:17;28.93;;;5.03;;
14605;SDS011;7389;53.692;-1.020;2023-03-12T09:38:45;99.67;;;7.30;;
14605;SDS011;7389;53.692;-1.020;2023-03-12T09:41:18;31.87;;;6.23;;
14605;SDS011;7389;53.692;-1.020;2023-03-12T09:43:48;38.40;;;5.87;;
14605;SDS011;7389;53.692;-1.020;2023-03-12T09:46:27;36.27;;;5.77;;
14605;SDS011;7389;53.692;-1.020;2023-03-12T09:48:56;30.67;;;5.10;;
14605;SDS011;7389;53.692;-1.020;2023-03-12T09:51:34;40.27;;;5.50;;
14605;SDS011;7389;53.692;-1.020;2023-03-12T09:54:05;38.40;;;5.93;;
14605;SDS011;7389;53.692;-1.020;2023-03-12T09:56:34;32.27;;;6.67;;
14605;SDS011;7389;53.692;-1.020;2023-03-12T09:59:02;32.83;;;3.97;;
14605;SDS011;7389;53.692;-1.020;2023-03-12T10:01:34;31.00;;;5.57;;
14605;SDS011;7389;53.692;-1.020;2023-03-12T10:04:08;41.03;;;5.17;;
14605;SDS011;7389;53.692;-1.020;2023-03-12T10:06:45;30.57;;;4.47;;
14605;SDS011;7389;53.692;-1.020;2023-03-12T10:12:07;29.80;;;5.43;;
14605;SDS011;7389;53.692;-1.020;2023-03-12T10:14:42;23.23;;;4.83;;
14605;SDS011;7389;53.692;-1.020;2023-03-12T10:20:07;24.33;;;4.00;;
14605;SDS011;7389;53.692;-1.020;2023-03-12T10:22:48;24.83;;;4.40;;
14605;SDS011;7389;53.692;-1.020;2023-03-12T10:25:25;25.33;;;4.20;;
14605;SDS011;7389;53.692;-1.020;2023-03-12T10:27:58;34.47;;;4.67;;
14605;SDS011;7389;53.692;-1.020;2023-03-12T10:30:27;27.57;;;4.17;;
14605;SDS011;7389;53.692;-1.020;2023-03-12T10:32:57;23.43;;;3.57;;
14605;SDS011;7389;53.692;-1.020;2023-03-12T10:35:28;33.17;;;4.67;;
14605;SDS011;7389;53.692;-1.020;2023-03-12T10:37:58;26.63;;;4.10;;
14605;SDS011;7389;53.692;-1.020;2023-03-12T10:40:29;30.17;;;4.03;;
14605;SDS011;7389;53.692;-1.020;2023-03-12T10:42:59;39.23;;;3.90;;
14605;SDS011;7389;53.692;-1.020;2023-03-12T10:45:37;25.70;;;4.00;;
14605;SDS011;7389;53.692;-1.020;2023-03-12T10:48:08;33.77;;;5.00;;
14605;SDS011;7389;53.692;-1.020;2023-03-12T10:50:38;39.30;;;4.20;;
14605;SDS011;7389;53.692;-1.020;2023-03-12T10:53:26;38.47;;;4.20;;
14605;SDS011;7389;53.692;-1.020;2023-03-12T10:55:58;41.47;;;4.83;;
14605;SDS011;7389;53.692;-1.020;2023-03-12T10:58:32;28.17;;;3.87;;
14605;SDS011;7389;53.692;-1.020;2023-03-12T11:01:01;18.83;;;3.27;;
14605;SDS011;7389;53.692;-1.020;2023-03-12T11:03:29;33.23;;;4.63;;
14605;SDS011;7389;53.692;-1.020;2023-03-12T11:05:59;31.10;;;4.97;;
14605;SDS011;7389;53.692;-1.020;2023-03-12T11:08:29;41.97;;;4.73;;
14605;SDS011;7389;53.692;-1.020;2023-03-12T11:11:01;33.73;;;5.80;;
14605;SDS011;7389;53.692;-1.020;2023-03-12T11:13:32;30.00;;;4.23;;
14605;SDS011;7389;53.692;-1.020;2023-03-12T11:16:02;27.30;;;3.93;;
14605;SDS011;7389;53.692;-1.020;2023-03-12T11:18:32;35.37;;;4.63;;
14605;SDS011;7389;53.692;-1.020;2023-03-12T11:21:12;39.37;;;5.80;;
14605;SDS011;7389;53.692;-1.020;2023-03-12T11:23:42;21.43;;;4.60;;
14605;SDS011;7389;53.692;-1.020;2023-03-12T11:26:15;30.43;;;4.97;;
14605;SDS011;7389;53.692;-1.020;2023-03-12T11:28:46;24.50;;;4.73;;
14605;SDS011;7389;53.692;-1.020;2023-03-12T11:31:18;34.60;;;5.27;;
14605;SDS011;7389;53.692;-1.020;2023-03-12T11:33:47;34.43;;;5.07;;
14605;SDS011;7389;53.692;-1.020;2023-03-12T11:36:19;30.73;;;4.70;;
14605;SDS011;7389;53.692;-1.020;2023-03-12T11:38:56;33.67;;;5.10;;
14605;SDS011;7389;53.692;-1.020;2023-03-12T11:44:30;33.77;;;4.53;;
14605;SDS011;7389;53.692;-1.020;2023-03-12T11:49:52;23.90;;;5.07;;
14605;SDS011;7389;53.692;-1.020;2023-03-12T11:55:16;31.87;;;5.27;;
14605;SDS011;7389;53.692;-1.020;2023-03-12T12:00:43;31.47;;;4.30;;
14605;SDS011;7389;53.692;-1.020;2023-03-12T12:03:19;38.17;;;4.90;;
14605;SDS011;7389;53.692;-1.020;2023-03-12T12:06:02;23.53;;;5.00;;
14605;SDS011;7389;53.692;-1.020;2023-03-12T12:08:37;28.77;;;4.33;;
14605;SDS011;7389;53.692;-1.020;2023-03-12T12:11:13;39.90;;;4.30;;
14605;SDS011;7389;53.692;-1.020;2023-03-12T12:19:21;26.83;;;4.47;;
14605;SDS011;7389;53.692;-1.020;2023-03-12T12:22:02;28.57;;;3.63;;
14605;SDS011;7389;53.692;-1.020;2023-03-12T12:24:53;25.13;;;3.87;;
14605;SDS011;7389;53.692;-1.020;2023-03-12T12:27:22;24.90;;;4.73;;
14605;SDS011;7389;53.692;-1.020;2023-03-12T12:29:56;27.73;;;5.33;;
14605;SDS011;7389;53.692;-1.020;2023-03-12T12:32:32;16.57;;;3.63;;
14605;SDS011;7389;53.692;-1.020;2023-03-12T12:37:52;25.37;;;4.90;;
14605;SDS011;7389;53.692;-1.020;2023-03-12T12:40:24;30.53;;;4.20;;
14605;SDS011;7389;53.692;-1.020;2023-03-12T12:45:42;30.87;;;4.37;;
14605;SDS011;7389;53.692;-1.020;2023-03-12T12:48:19;24.33;;;3.47;;
14605;SDS011;7389;53.692;-1.020;2023-03-12T12:50:49;13.60;;;4.30;;
14605;SDS011;7389;53.692;-1.020;2023-03-12T12:53:21;32.23;;;3.63;;
14605;SDS011;7389;53.692;-1.020;2023-03-12T12:56:00;21.63;;;3.63;;
14605;SDS011;7389;53.692;-1.020;2023-03-12T13:01:17;22.60;;;3.67;;
14605;SDS011;7389;53.692;-1.020;2023-03-12T13:03:45;36.60;;;5.30;;
14605;SDS011;7389;53.692;-1.020;2023-03-12T13:06:15;24.67;;;3.90;;
14605;SDS011;7389;53.692;-1.020;2023-03-12T13:11:39;17.83;;;3.50;;
14605;SDS011;7389;53.692;-1.020;2023-03-12T13:14:12;19.80;;;4.20;;
14605;SDS011;7389;53.692;-1.020;2023-03-12T13:16:42;20.13;;;4.23;;
14605;SDS011;7389;53.692;-1.020;2023-03-12T13:19:21;34.43;;;3.87;;
14605;SDS011;7389;53.692;-1.020;2023-03-12T13:24:44;24.30;;;2.70;;
14605;SDS011;7389;53.692;-1.020;2023-03-12T13:33:03;19.90;;;3.70;;
14605;SDS011;7389;53.692;-1.020;2023-03-12T13:35:35;21.40;;;3.67;;
14605;SDS011;7389;53.692;-1.020;2023-03-12T13:38:05;20.83;;;4.07;;
14605;SDS011;7389;53.692;-1.020;2023-03-12T13:40:40;22.37;;;3.60;;
14605;SDS011;7389;53.692;-1.020;2023-03-12T13:46:20;30.00;;;4.17;;
14605;SDS011;7389;53.692;-1.020;2023-03-12T13:48:49;19.53;;;2.90;;
14605;SDS011;7389;53.692;-1.020;2023-03-12T13:51:20;24.90;;;4.30;;
14605;SDS011;7389;53.692;-1.020;2023-03-12T13:53:58;31.87;;;4.70;;
14605;SDS011;7389;53.692;-1.020;2023-03-12T13:56:28;22.20;;;4.80;;
14605;SDS011;7389;53.692;-1.020;2023-03-12T13:59:04;15.50;;;3.27;;
14605;SDS011;7389;53.692;-1.020;2023-03-12T14:01:35;31.20;;;4.07;;
14605;SDS011;7389;53.692;-1.020;2023-03-12T14:04:05;11.60;;;2.40;;
14605;SDS011;7389;53.692;-1.020;2023-03-12T14:06:45;31.50;;;5.30;;
14605;SDS011;7389;53.692;-1.020;2023-03-12T14:09:21;30.43;;;5.13;;
14605;SDS011;7389;53.692;-1.020;2023-03-12T14:11:55;13.77;;;3.50;;
14605;SDS011;7389;53.692;-1.020;2023-03-12T14:14:29;25.77;;;3.93;;
14605;SDS011;7389;53.692;-1.020;2023-03-12T14:16:58;18.47;;;3.27;;
14605;SDS011;7389;53.692;-1.020;2023-03-12T14:19:29;16.27;;;3.00;;
14605;SDS011;7389;53.692;-1.020;2023-03-12T14:22:00;29.57;;;3.93;;
14605;SDS011;7389;53.692;-1.020;2023-03-12T14:24:31;22.80;;;3.13;;
14605;SDS011;7389;53.692;-1.020;2023-03-12T14:27:01;25.80;;;2.70;;
14605;SDS011;7389;53.692;-1.020;2023-03-12T14:29:40;9.27;;;2.23;;
14605;SDS011;7389;53.692;-1.020;2023-03-12T14:32:13;14.40;;;2.53;;
14605;SDS011;7389;53.692;-1.020;2023-03-12T14:34:44;25.83;;;3.93;;
14605;SDS011;7389;53.692;-1.020;2023-03-12T14:37:15;16.43;;;3.20;;
14605;SDS011;7389;53.692;-1.020;2023-03-12T14:39:49;14.87;;;2.70;;
14605;SDS011;7389;53.692;-1.020;2023-03-12T14:42:22;22.87;;;3.40;;
14605;SDS011;7389;53.692;-1.020;2023-03-12T14:44:58;24.83;;;3.70;;
14605;SDS011;7389;53.692;-1.020;2023-03-12T14:47:27;29.50;;;3.20;;
14605;SDS011;7389;53.692;-1.020;2023-03-12T18:04:11;7.27;;;2.20;;
14605;SDS011;7389;53.692;-1.020;2023-03-12T18:06:39;5.77;;;1.43;;
14605;SDS011;7389;53.692;-1.020;2023-03-12T18:09:05;4.13;;;1.13;;
14605;SDS011;7389;53.692;-1.020;2023-03-12T18:11:32;2.10;;;1.03;;
14605;SDS011;7389;53.692;-1.020;2023-03-12T18:13:58;6.63;;;1.10;;
14605;SDS011;7389;53.692;-1.020;2023-03-12T18:16:24;8.37;;;1.73;;
14605;SDS011;7389;53.692;-1.020;2023-03-12T18:18:50;4.17;;;1.30;;
14605;SDS011;7389;53.692;-1.020;2023-03-12T18:21:16;7.37;;;1.30;;
14605;SDS011;7389;53.692;-1.020;2023-03-12T18:23:43;18.40;;;1.57;;
14605;SDS011;7389;53.692;-1.020;2023-03-12T18:26:10;3.70;;;0.97;;
14605;SDS011;7389;53.692;-1.020;2023-03-12T18:28:36;5.27;;;1.53;;
14605;SDS011;7389;53.692;-1.020;2023-03-12T18:31:02;5.43;;;1.10;;
14605;SDS011;7389;53.692;-1.020;2023-03-12T18:33:28;4.10;;;0.90;;
14605;SDS011;7389;53.692;-1.020;2023-03-12T18:35:55;5.23;;;1.50;;
14605;SDS011;7389;53.692;-1.020;2023-03-12T18:38:21;8.23;;;1.30;;
14605;SDS011;7389;53.692;-1.020;2023-03-12T18:40:47;15.87;;;2.67;;
14605;SDS011;7389;53.692;-1.020;2023-03-12T18:43:15;6.87;;;1.30;;
14605;SDS011;7389;53.692;-1.020;2023-03-12T18:45:42;7.53;;;1.30;;
14605;SDS011;7389;53.692;-1.020;2023-03-12T18:48:08;2.90;;;1.77;;